createdAt,value
2023-03-26T00:00:26.795Z,98648.95
2023-03-26T00:06:00.970Z,98643.88
2023-03-26T00:11:06.569Z,98639.14
2023-03-26T00:16:12.394Z,98637.09
2023-03-26T00:21:17.740Z,98636.91
2023-03-26T00:26:20.943Z,98625.41
2023-03-26T00:31:24.259Z,98625.09
2023-03-26T00:36:27.405Z,98618.77
2023-03-26T00:41:31.357Z,98614.88
2023-03-26T00:46:34.438Z,98615.77
2023-03-26T00:51:39.471Z,98611.30
2023-03-26T00:56:42.607Z,98605.48
2023-03-26T01:01:45.723Z,98600.80
2023-03-26T01:06:48.995Z,98599.04
2023-03-26T01:11:52.344Z,98602.25
2023-03-26T01:16:56.551Z,98604.66
2023-03-26T01:22:00.877Z,98597.63
2023-03-26T01:27:26.727Z,98597.31
2023-03-26T01:32:38.400Z,98592.79
2023-03-26T01:37:46.976Z,98594.45
2023-03-26T01:43:12.886Z,98587.45
2023-03-26T01:48:16.032Z,98577.47
2023-03-26T01:53:19.133Z,98569.74
2023-03-26T01:58:32.788Z,98563.08
2023-03-26T02:03:45.094Z,98559.52
2023-03-26T02:08:55.696Z,98556.02
2023-03-26T02:13:59.314Z,98556.61
2023-03-26T02:19:02.431Z,98553.34
2023-03-26T02:24:05.534Z,98545.25
2023-03-26T02:29:08.851Z,98541.17
2023-03-26T02:34:12.276Z,98545.09
2023-03-26T02:39:15.455Z,98546.14
2023-03-26T02:44:18.381Z,98546.54
2023-03-26T02:49:21.588Z,98543.17
2023-03-26T02:54:24.496Z,98543.73
2023-03-26T02:59:27.704Z,98540.20
2023-03-26T03:04:30.609Z,98535.52
2023-03-26T03:09:33.512Z,98526.42
2023-03-26T03:14:36.724Z,98521.50
2023-03-26T03:19:40.142Z,98520.29
2023-03-26T03:24:43.998Z,98522.52
2023-03-26T03:29:47.099Z,98524.05
2023-03-26T03:34:51.784Z,98522.66
2023-03-26T03:39:54.735Z,98524.75
2023-03-26T03:44:57.635Z,98520.96
2023-03-26T03:50:00.746Z,98518.95
2023-03-26T03:55:04.390Z,98515.39
2023-03-26T04:00:11.890Z,98511.37
2023-03-26T04:05:14.779Z,98521.39
2023-03-26T04:10:17.794Z,98523.66
2023-03-26T04:15:21.330Z,98515.93
2023-03-26T04:20:24.525Z,98512.02
2023-03-26T04:25:30.697Z,98504.84
2023-03-26T04:30:35.443Z,98504.08
2023-03-26T04:35:42.127Z,98501.14
2023-03-26T04:40:48.001Z,98492.73
2023-03-26T04:45:52.574Z,98489.86
2023-03-26T04:50:55.663Z,98483.84
2023-03-26T04:56:09.527Z,98486.99
2023-03-26T05:01:12.564Z,98478.41
2023-03-26T05:06:17.883Z,98474.92
2023-03-26T05:11:21.228Z,98479.55
2023-03-26T05:16:25.064Z,98480.64
2023-03-26T05:21:27.941Z,98479.71
2023-03-26T05:26:30.836Z,98479.45
2023-03-26T05:31:33.741Z,98476.23
2023-03-26T05:36:37.098Z,98477.31
2023-03-26T05:41:39.960Z,98471.91
2023-03-26T05:46:42.979Z,98471.45
2023-03-26T05:51:46.588Z,98468.35
2023-03-26T05:56:49.512Z,98470.71
2023-03-26T06:01:54.785Z,98468.62
2023-03-26T06:06:58.167Z,98471.61
2023-03-26T06:12:01.093Z,98476.30
2023-03-26T06:17:04.501Z,98474.42
2023-03-26T06:22:07.398Z,98476.27
2023-03-26T06:27:10.399Z,98475.27
2023-03-26T06:32:19.621Z,98471.52
2023-03-26T06:37:23.272Z,98470.86
2023-03-26T06:43:06.394Z,98478.14
2023-03-26T06:47:49.358Z,98473.84
2023-03-26T06:52:56.564Z,98475.73
2023-03-26T06:57:59.569Z,98478.86
2023-03-26T07:03:04.885Z,98480.23
2023-03-26T07:08:07.860Z,98477.55
2023-03-26T07:13:11.191Z,98473.76
2023-03-26T07:18:14.055Z,98477.50
2023-03-26T07:23:20.913Z,98474.67
2023-03-26T07:28:27.258Z,98473.01
2023-03-26T07:34:04.266Z,98473.78
2023-03-26T07:39:16.154Z,98474.34
2023-03-26T07:44:41.161Z,98470.73
2023-03-26T07:49:44.908Z,98464.20
2023-03-26T07:54:48.219Z,98467.25
2023-03-26T08:00:12.364Z,98469.02
2023-03-26T08:05:26.488Z,98471.13
2023-03-26T08:10:58.879Z,98465.22
2023-03-26T08:16:19.634Z,98461.63
2023-03-26T08:21:28.784Z,98459.86
2023-03-26T08:26:35.448Z,98459.64
2023-03-26T08:31:41.670Z,98461.50
2023-03-26T08:36:44.840Z,98463.66
2023-03-26T08:42:16.105Z,98467.28
2023-03-26T08:47:41.444Z,98465.29
2023-03-26T08:53:09.632Z,98458.86
2023-03-26T08:58:31.171Z,98457.89
2023-03-26T09:03:43.147Z,98458.86
2023-03-26T09:09:05.654Z,98455.20
2023-03-26T09:14:14.598Z,98453.02
2023-03-26T09:19:50.580Z,98454.43
2023-03-26T09:25:16.732Z,98459.36
2023-03-26T09:30:28.453Z,98466.98
2023-03-26T09:35:54.071Z,98475.83
2023-03-26T09:41:13.062Z,98473.00
2023-03-26T09:46:34.823Z,98472.72
2023-03-26T09:51:54.656Z,98476.23
2023-03-26T09:57:25.791Z,98473.88
2023-03-26T10:02:45.422Z,98478.96
2023-03-26T10:08:08.343Z,98480.58
2023-03-26T10:13:21.702Z,98485.76
2023-03-26T10:18:43.346Z,98485.68
2023-03-26T10:24:20.140Z,98477.52
2023-03-26T10:29:44.749Z,98473.77
2023-03-26T10:35:06.392Z,98475.39
2023-03-26T10:40:44.422Z,98473.32
2023-03-26T10:46:04.290Z,98472.94
2023-03-26T10:51:32.007Z,98470.08
2023-03-26T10:56:46.110Z,98472.02
2023-03-26T11:01:57.938Z,98471.74
2023-03-26T11:07:25.988Z,98474.84
2023-03-26T11:13:04.890Z,98477.92
2023-03-26T11:18:23.908Z,98476.30
2023-03-26T11:23:41.115Z,98479.22
2023-03-26T11:29:31.481Z,98480.86
2023-03-26T11:35:01.500Z,98478.57
2023-03-26T11:40:30.125Z,98478.41
2023-03-26T11:45:39.480Z,98481.20
2023-03-26T11:50:47.300Z,98477.05
2023-03-26T11:56:04.339Z,98479.77
2023-03-26T12:01:16.991Z,98474.42
2023-03-26T12:06:27.329Z,98472.07
2023-03-26T12:11:35.528Z,98477.96
2023-03-26T12:16:38.696Z,98497.30
2023-03-26T12:21:52.361Z,98506.67
2023-03-26T12:27:20.836Z,98519.23
2023-03-26T12:32:32.545Z,98518.92
2023-03-26T12:37:47.430Z,98529.20
2023-03-26T12:44:54.605Z,98528.05
2023-03-26T12:48:26.473Z,98523.67
2023-03-26T12:53:48.477Z,98515.79
2023-03-26T12:59:21.996Z,98517.63
2023-03-26T13:04:43.610Z,98509.65
2023-03-26T13:10:35.276Z,98513.29
2023-03-26T13:15:47.416Z,98513.81
2023-03-26T13:21:04.764Z,98505.74
2023-03-26T13:26:34.084Z,98506.19
2023-03-26T13:31:51.523Z,98501.09
2023-03-26T13:37:04.437Z,98497.06
2023-03-26T13:42:37.983Z,98501.27
2023-03-26T13:47:49.227Z,98497.21
2023-03-26T13:53:15.646Z,98500.96
2023-03-26T13:58:24.491Z,98501.70
2023-03-26T14:03:30.600Z,98505.44
2023-03-26T14:08:39.819Z,98506.27
2023-03-26T14:13:56.854Z,98504.80
2023-03-26T14:19:09.891Z,98503.92
2023-03-26T14:24:50.195Z,98508.83
2023-03-26T14:30:05.043Z,98511.91
2023-03-26T14:35:28.769Z,98512.35
2023-03-26T14:41:10.880Z,98522.67
2023-03-26T14:46:19.975Z,98531.24
2023-03-26T14:51:47.108Z,98533.30
2023-03-26T14:57:24.090Z,98539.81
2023-03-26T15:03:02.388Z,98541.02
2023-03-26T15:08:11.185Z,98545.27
2023-03-26T15:13:50.641Z,98551.97
2023-03-26T15:19:02.660Z,98555.14
2023-03-26T15:24:43.145Z,98556.44
2023-03-26T15:30:15.336Z,98559.40
2023-03-26T15:35:18.252Z,98548.77
2023-03-26T15:40:47.866Z,98546.38
2023-03-26T15:46:22.155Z,98551.44
2023-03-26T15:51:47.271Z,98562.55
2023-03-26T15:57:17.315Z,98569.50
2023-03-26T16:02:36.626Z,98569.48
2023-03-26T16:07:48.016Z,98564.67
2023-03-26T16:13:22.843Z,98563.73
2023-03-26T16:18:39.181Z,98568.89
2023-03-26T16:23:47.940Z,98580.45
2023-03-26T16:28:53.036Z,98584.35
2023-03-26T16:34:04.963Z,98589.73
2023-03-26T16:39:08.674Z,98594.34
2023-03-26T16:44:26.530Z,98596.06
2023-03-26T16:49:47.248Z,98597.16
2023-03-26T16:55:20.166Z,98589.79
2023-03-26T17:00:31.494Z,98581.08
2023-03-26T17:05:59.454Z,98586.08
2023-03-26T17:11:24.371Z,98591.94
2023-03-26T17:17:01.165Z,98597.52
2023-03-26T17:22:28.857Z,98610.80
2023-03-26T17:27:44.164Z,98617.91
2023-03-26T17:32:56.110Z,98627.23
2023-03-26T17:38:00.492Z,98633.45
2023-03-26T17:43:09.557Z,98639.22
2023-03-26T17:48:21.884Z,98644.86
2023-03-26T17:53:31.607Z,98642.52
2023-03-26T17:58:42.720Z,98642.78
2023-03-26T18:03:50.362Z,98645.35
2023-03-26T18:09:12.279Z,98648.89
2023-03-26T18:14:47.579Z,98652.23
2023-03-26T18:19:53.652Z,98660.30
2023-03-26T18:25:01.710Z,98663.23
2023-03-26T18:30:20.673Z,98661.63
2023-03-26T18:35:24.850Z,98657.70
2023-03-26T18:40:34.247Z,98657.25
2023-03-26T18:45:39.752Z,98655.48
2023-03-26T18:50:43.035Z,98656.15
2023-03-26T18:55:46.541Z,98647.69
2023-03-26T19:00:53.141Z,98649.70
2023-03-26T19:05:58.241Z,98647.23
2023-03-26T19:11:04.693Z,98648.36
2023-03-26T19:16:17.544Z,98651.86
2023-03-26T19:21:23.520Z,98659.80
2023-03-26T19:26:26.904Z,98664.45
2023-03-26T19:31:34.620Z,98660.01
2023-03-26T19:37:01.200Z,98662.26
2023-03-26T19:42:06.622Z,98665.66
2023-03-26T19:47:26.803Z,98660.92
2023-03-26T19:52:38.566Z,98657.73
2023-03-26T19:57:41.474Z,98660.27
2023-03-26T20:02:46.504Z,98664.85
2023-03-26T20:07:50.774Z,98665.71
2023-03-26T20:12:53.673Z,98663.35
2023-03-26T20:17:56.602Z,98656.69
2023-03-26T20:22:59.581Z,98651.44
2023-03-26T20:28:03.102Z,98650.85
2023-03-26T20:33:12.128Z,98647.44
2023-03-26T20:38:18.214Z,98650.63
2023-03-26T20:43:25.204Z,98643.30
2023-03-26T20:48:28.020Z,98645.24
2023-03-26T20:53:30.921Z,98647.23
2023-03-26T20:58:33.754Z,98641.51
2023-03-26T21:03:37.652Z,98642.65
2023-03-26T21:08:44.726Z,98645.14
2023-03-26T21:13:58.558Z,98646.71
2023-03-26T21:19:03.154Z,98648.67
2023-03-26T21:24:33.252Z,98658.11
2023-03-26T21:29:37.433Z,98659.13
2023-03-26T21:34:47.862Z,98656.23
2023-03-26T21:40:00.002Z,98655.09
2023-03-26T21:45:03.918Z,98658.90
2023-03-26T21:50:08.536Z,98660.39
2023-03-26T21:55:13.299Z,98664.55
2023-03-26T22:00:18.830Z,98662.36
2023-03-26T22:05:47.713Z,98663.14
2023-03-26T22:10:50.543Z,98667.10
2023-03-26T22:15:53.821Z,98663.89
2023-03-26T22:20:59.250Z,98661.56
2023-03-26T22:26:03.308Z,98660.60
2023-03-26T22:31:08.998Z,98657.54
2023-03-26T22:36:22.561Z,98659.11
2023-03-26T22:41:26.711Z,98662.21
2023-03-26T22:46:31.183Z,98665.13
2023-03-26T22:51:34.252Z,98669.47
2023-03-26T22:56:37.394Z,98673.80
2023-03-26T23:01:40.378Z,98675.23
2023-03-26T23:06:43.271Z,98675.50
2023-03-26T23:11:46.301Z,98682.67
2023-03-26T23:16:50.718Z,98680.42
2023-03-26T23:21:53.624Z,98676.89
2023-03-26T23:26:56.426Z,98675.94
2023-03-26T23:32:00.445Z,98675.16
2023-03-26T23:37:03.366Z,98671.80
2023-03-26T23:42:06.281Z,98658.97
2023-03-26T23:47:10.605Z,98661.38
2023-03-26T23:52:13.923Z,98667.20
2023-03-26T23:57:18.599Z,98661.33
